Terminal Aerodrome Forecast
Issued by NWS Tulsa, OK

Home | Current Version | Previous Version | Text Only | Print | Product List | Glossary On
Versions: 1 2 3 4 5 6 7 8 9 10 11 12 13 14 15
000
FTUS44 KTSA 160300 AAA
TAFTUL
TAF AMD
KTUL 160344Z 1604/1624 33005KT P6SM BKN028 OVC090
     FM160900 36005KT P6SM BKN015
     FM161700 06004KT P6SM BKN050=

USA.gov is the U.S. government's official web portal to all federal, state and local government web resources and services.